createdAt,value
2023-02-12T00:00:45.616Z,71.97
2023-02-12T00:03:13.454Z,71.73
2023-02-12T00:05:42.941Z,71.97
2023-02-12T00:08:12.043Z,71.62
2023-02-12T00:10:43.083Z,72.20
2023-02-12T00:13:11.100Z,71.63
2023-02-12T00:15:40.243Z,71.90
2023-02-12T00:18:08.082Z,72.03
2023-02-12T00:20:36.286Z,72.08
2023-02-12T00:23:05.847Z,72.01
2023-02-12T00:25:33.999Z,72.41
2023-02-12T00:28:02.117Z,72.02
2023-02-12T00:30:30.165Z,72.15
2023-02-12T00:32:58.058Z,72.01
2023-02-12T00:35:25.996Z,71.95
2023-02-12T00:37:53.799Z,72.33
2023-02-12T00:40:23.101Z,72.03
2023-02-12T00:42:50.930Z,72.34
2023-02-12T00:45:18.766Z,72.00
2023-02-12T00:47:46.664Z,71.95
2023-02-12T00:50:14.829Z,72.06
2023-02-12T00:52:43.067Z,72.06
2023-02-12T00:55:10.842Z,72.19
2023-02-12T00:57:40.079Z,72.21
2023-02-12T01:00:09.258Z,72.17
2023-02-12T01:02:37.005Z,72.01
2023-02-12T01:05:05.124Z,72.40
2023-02-12T01:07:32.954Z,72.23
2023-02-12T01:10:00.693Z,72.70
2023-02-12T01:12:28.568Z,72.24
2023-02-12T01:14:57.740Z,72.12
2023-02-12T01:17:25.773Z,72.45
2023-02-12T01:19:58.552Z,72.70
2023-02-12T01:22:27.699Z,72.79
2023-02-12T01:24:55.542Z,72.96
2023-02-12T01:27:23.343Z,72.69
2023-02-12T01:29:51.864Z,72.89
2023-02-12T01:32:21.158Z,72.88
2023-02-12T01:34:48.938Z,72.84
2023-02-12T01:37:16.897Z,72.54
2023-02-12T01:39:44.628Z,72.89
2023-02-12T01:42:13.770Z,72.80
2023-02-12T01:44:45.692Z,72.53
2023-02-12T01:47:18.742Z,72.82
2023-02-12T01:49:49.363Z,72.79
2023-02-12T01:52:21.260Z,72.88
2023-02-12T01:54:50.159Z,72.94
2023-02-12T01:57:19.446Z,73.15
2023-02-12T01:59:52.945Z,72.87
2023-02-12T02:02:20.900Z,72.90
2023-02-12T02:04:54.150Z,73.12
2023-02-12T02:07:21.942Z,73.19
2023-02-12T02:09:49.985Z,73.20
2023-02-12T02:12:35.457Z,73.36
2023-02-12T02:15:05.338Z,73.07
2023-02-12T02:17:46.121Z,73.22
2023-02-12T02:20:43.864Z,73.34
2023-02-12T02:23:45.523Z,73.17
2023-02-12T02:26:38.650Z,73.42
2023-02-12T02:29:24.368Z,73.62
2023-02-12T02:32:00.162Z,73.49
2023-02-12T02:34:34.529Z,73.57
2023-02-12T02:37:11.378Z,73.52
2023-02-12T02:39:44.465Z,73.83
2023-02-12T02:42:18.365Z,73.58
2023-02-12T02:44:53.936Z,73.54
2023-02-12T02:47:26.774Z,73.66
2023-02-12T02:49:58.697Z,73.67
2023-02-12T02:52:32.793Z,73.62
2023-02-12T02:55:07.668Z,73.70
2023-02-12T02:57:39.631Z,73.86
2023-02-12T03:00:15.047Z,73.78
2023-02-12T03:02:49.222Z,73.67
2023-02-12T03:05:20.652Z,73.97
2023-02-12T03:07:53.406Z,73.74
2023-02-12T03:10:26.305Z,74.02
2023-02-12T03:12:56.983Z,73.89
2023-02-12T03:15:29.912Z,73.90
2023-02-12T03:18:00.930Z,73.86
2023-02-12T03:20:32.241Z,73.95
2023-02-12T03:23:05.990Z,74.01
2023-02-12T03:25:37.666Z,73.99
2023-02-12T03:28:10.814Z,74.01
2023-02-12T03:30:46.678Z,73.85
2023-02-12T03:33:23.829Z,74.16
2023-02-12T03:36:00.745Z,74.04
2023-02-12T03:38:38.456Z,74.08
2023-02-12T03:41:10.201Z,74.08
2023-02-12T03:43:50.415Z,74.10
2023-02-12T03:46:24.067Z,74.20
2023-02-12T03:49:02.472Z,74.28
2023-02-12T03:51:35.887Z,74.39
2023-02-12T03:54:05.104Z,74.45
2023-02-12T03:56:38.546Z,74.24
2023-02-12T03:59:07.098Z,74.34
2023-02-12T04:01:36.747Z,74.42
2023-02-12T04:04:08.764Z,74.41
2023-02-12T04:06:37.021Z,74.51
2023-02-12T04:09:07.429Z,74.43
2023-02-12T04:11:43.714Z,74.58
2023-02-12T04:14:19.071Z,74.40
2023-02-12T04:16:53.153Z,74.56
2023-02-12T04:19:32.989Z,74.57
2023-02-12T04:22:14.079Z,74.59
2023-02-12T04:24:50.884Z,74.66
2023-02-12T04:27:26.764Z,74.66
2023-02-12T04:29:59.810Z,74.60
2023-02-12T04:32:34.038Z,74.73
2023-02-12T04:35:13.657Z,74.48
2023-02-12T04:37:45.145Z,74.66
2023-02-12T04:40:16.116Z,74.70
2023-02-12T04:42:45.314Z,74.95
2023-02-12T04:45:15.036Z,74.75
2023-02-12T04:47:43.125Z,74.52
2023-02-12T04:50:13.520Z,74.79
2023-02-12T04:52:41.481Z,74.55
2023-02-12T04:55:09.683Z,74.48
2023-02-12T04:57:37.603Z,74.96
2023-02-12T05:00:06.844Z,74.81
2023-02-12T05:02:35.453Z,74.97
2023-02-12T05:05:03.830Z,74.76
2023-02-12T05:07:33.160Z,74.87
2023-02-12T05:10:00.919Z,74.76
2023-02-12T05:12:28.763Z,74.65
2023-02-12T05:14:56.618Z,74.84
2023-02-12T05:17:24.775Z,74.98
2023-02-12T05:19:52.830Z,74.99
2023-02-12T05:22:20.769Z,74.97
2023-02-12T05:24:50.175Z,74.81
2023-02-12T05:27:18.145Z,74.95
2023-02-12T05:29:46.093Z,75.04
2023-02-12T05:32:14.083Z,74.87
2023-02-12T05:34:42.398Z,74.90
2023-02-12T05:37:10.235Z,74.91
2023-02-12T05:39:38.171Z,75.06
2023-02-12T05:42:07.549Z,75.22
2023-02-12T05:44:35.400Z,75.23
2023-02-12T05:47:03.285Z,75.41
2023-02-12T05:49:31.260Z,75.29
2023-02-12T05:51:59.059Z,75.13
2023-02-12T05:54:26.898Z,75.28
2023-02-12T05:56:54.882Z,74.97
2023-02-12T05:59:24.855Z,74.97
2023-02-12T06:01:53.927Z,75.05
2023-02-12T06:04:24.043Z,75.10
2023-02-12T06:06:52.557Z,75.06
2023-02-12T06:09:20.797Z,75.27
2023-02-12T06:11:48.993Z,75.13
2023-02-12T06:14:18.803Z,75.49
2023-02-12T06:16:49.372Z,75.04
2023-02-12T06:19:18.379Z,75.13
2023-02-12T06:21:46.807Z,74.98
2023-02-12T06:24:15.660Z,75.21
2023-02-12T06:26:43.619Z,75.52
2023-02-12T06:29:11.537Z,75.10
2023-02-12T06:31:39.912Z,75.22
2023-02-12T06:34:11.529Z,75.30
2023-02-12T06:36:41.102Z,75.38
2023-02-12T06:39:09.707Z,75.60
2023-02-12T06:41:37.507Z,75.43
2023-02-12T06:44:06.669Z,75.35
2023-02-12T06:46:34.665Z,75.53
2023-02-12T06:49:02.598Z,75.62
2023-02-12T06:51:32.244Z,75.65
2023-02-12T06:54:00.179Z,75.71
2023-02-12T06:56:28.940Z,75.38
2023-02-12T06:59:01.111Z,75.49
2023-02-12T07:01:31.312Z,75.37
2023-02-12T07:04:00.899Z,75.19
2023-02-12T07:06:29.926Z,75.80
2023-02-12T07:08:59.530Z,75.49
2023-02-12T07:11:28.705Z,75.67
2023-02-12T07:13:56.635Z,75.37
2023-02-12T07:16:25.345Z,75.37
2023-02-12T07:18:53.370Z,75.57
2023-02-12T07:21:21.915Z,76.00
2023-02-12T07:23:51.670Z,75.66
2023-02-12T07:26:22.770Z,75.47
2023-02-12T07:28:51.428Z,75.90
2023-02-12T07:31:21.910Z,76.12
2023-02-12T07:33:50.559Z,75.98
2023-02-12T07:36:21.748Z,75.58
2023-02-12T07:38:49.988Z,75.48
2023-02-12T07:41:21.542Z,75.85
2023-02-12T07:43:54.301Z,75.85
2023-02-12T07:46:26.477Z,75.87
2023-02-12T07:48:54.440Z,75.55
2023-02-12T07:51:22.279Z,75.87
2023-02-12T07:53:51.967Z,76.06
2023-02-12T07:56:23.231Z,76.03
2023-02-12T07:58:52.834Z,76.08
2023-02-12T08:01:23.566Z,76.09
2023-02-12T08:03:52.984Z,76.02
2023-02-12T08:06:23.430Z,75.62
2023-02-12T08:08:52.778Z,75.72
2023-02-12T08:11:22.485Z,75.65
2023-02-12T08:13:50.377Z,76.33
2023-02-12T08:16:20.631Z,76.02
2023-02-12T08:18:49.185Z,76.06
2023-02-12T08:21:18.827Z,76.23
2023-02-12T08:23:49.987Z,76.07
2023-02-12T08:26:20.542Z,76.19
2023-02-12T08:28:51.765Z,75.85
2023-02-12T08:31:23.123Z,75.96
2023-02-12T08:33:52.929Z,76.44
2023-02-12T08:36:23.521Z,76.38
2023-02-12T08:38:51.942Z,75.96
2023-02-12T08:41:21.833Z,76.45
2023-02-12T08:43:53.245Z,76.37
2023-02-12T08:46:25.256Z,76.41
2023-02-12T08:48:56.939Z,76.38
2023-02-12T08:51:26.972Z,76.09
2023-02-12T08:53:56.892Z,75.97
2023-02-12T08:56:25.635Z,76.39
2023-02-12T08:58:54.950Z,76.27
2023-02-12T09:01:25.594Z,76.41
2023-02-12T09:03:54.241Z,76.35
2023-02-12T09:06:24.550Z,76.40
2023-02-12T09:08:53.004Z,76.06
2023-02-12T09:11:24.348Z,76.54
2023-02-12T09:13:52.218Z,76.40
2023-02-12T09:16:21.665Z,76.67
2023-02-12T09:18:52.217Z,76.58
2023-02-12T09:21:20.448Z,76.54
2023-02-12T09:23:49.016Z,76.72
2023-02-12T09:26:20.852Z,76.51
2023-02-12T09:28:49.938Z,76.63
2023-02-12T09:31:20.845Z,76.69
2023-02-12T09:33:54.056Z,76.54
2023-02-12T09:36:23.438Z,76.62
2023-02-12T09:38:51.613Z,76.81
2023-02-12T09:42:03.773Z,76.94
2023-02-12T09:44:41.948Z,76.92
2023-02-12T09:47:16.637Z,76.84
2023-02-12T09:50:05.674Z,76.85
2023-02-12T09:52:37.352Z,77.12
2023-02-12T09:55:05.817Z,77.07
2023-02-12T09:57:36.308Z,76.95
2023-02-12T10:00:07.931Z,76.97
2023-02-12T10:02:37.296Z,76.96
2023-02-12T10:05:11.315Z,76.44
2023-02-12T10:07:59.042Z,77.04
2023-02-12T10:10:41.168Z,76.91
2023-02-12T10:13:19.939Z,77.04
2023-02-12T10:15:57.246Z,77.32
2023-02-12T10:18:48.040Z,77.01
2023-02-12T10:21:30.437Z,76.85
2023-02-12T10:24:15.143Z,76.55
2023-02-12T10:26:47.775Z,77.19
2023-02-12T10:29:19.402Z,76.79
2023-02-12T10:31:50.321Z,76.95
2023-02-12T10:34:21.399Z,77.40
2023-02-12T10:36:52.973Z,76.97
2023-02-12T10:39:25.360Z,77.31
2023-02-12T10:41:59.429Z,76.71
2023-02-12T10:44:27.616Z,77.46
2023-02-12T10:46:56.193Z,77.31
2023-02-12T10:49:24.731Z,77.10
2023-02-12T10:52:06.395Z,77.37
2023-02-12T10:54:43.050Z,77.28
2023-02-12T10:57:21.857Z,77.02
2023-02-12T10:59:53.241Z,77.13
2023-02-12T11:02:25.188Z,76.77
2023-02-12T11:04:54.391Z,77.44
2023-02-12T11:07:24.404Z,77.29
2023-02-12T11:09:57.416Z,77.18
2023-02-12T11:12:38.347Z,77.40
2023-02-12T11:15:15.502Z,76.92
2023-02-12T11:17:55.496Z,77.14
2023-02-12T11:20:29.584Z,76.84
2023-02-12T11:23:01.767Z,77.17
2023-02-12T11:25:32.035Z,77.07
2023-02-12T11:28:02.714Z,76.84
2023-02-12T11:30:30.818Z,77.04
2023-02-12T11:33:16.494Z,77.04
2023-02-12T11:35:53.855Z,77.02
2023-02-12T11:38:27.446Z,77.01
2023-02-12T11:41:00.587Z,77.06
2023-02-12T11:43:31.208Z,77.35
2023-02-12T11:46:01.922Z,77.20
2023-02-12T11:48:33.446Z,77.01
2023-02-12T11:51:05.417Z,76.80
2023-02-12T11:53:40.549Z,77.08
2023-02-12T11:56:11.302Z,76.96
2023-02-12T11:58:40.066Z,77.27
2023-02-12T12:01:19.123Z,77.09
2023-02-12T12:03:55.259Z,77.10
2023-02-12T12:06:29.287Z,76.91
2023-02-12T12:09:09.250Z,76.67
2023-02-12T12:11:45.835Z,76.86
2023-02-12T12:14:20.524Z,76.91
2023-02-12T12:17:13.631Z,76.70
2023-02-12T12:19:54.938Z,76.96
2023-02-12T12:22:44.226Z,76.82
2023-02-12T12:25:21.610Z,76.56
2023-02-12T12:28:08.405Z,76.81
2023-02-12T12:30:52.719Z,76.72
2023-02-12T12:33:27.549Z,76.79
2023-02-12T12:36:15.349Z,76.85
2023-02-12T12:38:53.553Z,76.44
2023-02-12T12:41:33.362Z,77.07
2023-02-12T12:44:11.432Z,76.82
2023-02-12T12:47:00.214Z,76.99
2023-02-12T12:49:50.585Z,76.42
2023-02-12T12:52:51.726Z,76.51
2023-02-12T12:55:45.685Z,76.30
2023-02-12T12:58:25.132Z,76.40
2023-02-12T13:01:08.288Z,76.43
2023-02-12T13:04:02.048Z,76.52
2023-02-12T13:06:41.069Z,76.21
2023-02-12T13:09:29.985Z,76.74
2023-02-12T13:12:21.049Z,76.43
2023-02-12T13:14:57.411Z,76.92
2023-02-12T13:17:34.432Z,76.19
2023-02-12T13:20:11.588Z,76.44
2023-02-12T13:22:49.032Z,75.93
2023-02-12T13:25:25.062Z,76.11
2023-02-12T13:27:54.103Z,76.69
2023-02-12T13:30:28.258Z,76.38
2023-02-12T13:33:06.974Z,76.24
2023-02-12T13:35:39.077Z,76.66
2023-02-12T13:38:10.079Z,76.42
2023-02-12T13:40:38.640Z,76.25
2023-02-12T13:43:16.694Z,76.30
2023-02-12T13:45:53.205Z,76.36
2023-02-12T13:48:35.814Z,76.38
2023-02-12T13:51:17.595Z,75.89
2023-02-12T13:54:04.918Z,76.16
2023-02-12T13:56:43.211Z,76.19
2023-02-12T13:59:48.899Z,75.88
2023-02-12T14:02:52.652Z,76.38
2023-02-12T14:05:32.071Z,76.14
2023-02-12T14:08:03.620Z,76.19
2023-02-12T14:10:34.713Z,75.99
2023-02-12T14:13:20.534Z,76.06
2023-02-12T14:15:51.977Z,75.70
2023-02-12T14:18:39.063Z,76.07
2023-02-12T14:21:44.140Z,76.16
2023-02-12T14:24:51.658Z,76.02
2023-02-12T14:27:33.832Z,75.72
2023-02-12T14:30:28.403Z,76.03
2023-02-12T14:33:13.813Z,75.56
2023-02-12T14:35:44.164Z,75.81
2023-02-12T14:38:56.674Z,75.84
2023-02-12T14:41:37.734Z,75.85
2023-02-12T14:44:42.624Z,75.67
2023-02-12T14:47:30.147Z,75.58
2023-02-12T14:50:03.215Z,75.74
2023-02-12T14:52:39.156Z,75.52
2023-02-12T14:55:19.473Z,75.64
2023-02-12T14:57:47.655Z,75.51
2023-02-12T15:00:24.364Z,75.59
2023-02-12T15:02:55.895Z,75.62
2023-02-12T15:05:28.050Z,75.64
2023-02-12T15:08:01.183Z,75.59
2023-02-12T15:10:33.454Z,75.51
2023-02-12T15:13:15.998Z,75.50
2023-02-12T15:15:49.632Z,75.28
2023-02-12T15:18:26.551Z,75.38
2023-02-12T15:21:01.623Z,75.72
2023-02-12T15:23:40.714Z,75.26
2023-02-12T15:26:15.791Z,75.57
2023-02-12T15:28:46.925Z,75.60
2023-02-12T15:31:18.058Z,75.37
2023-02-12T15:33:48.978Z,75.58
2023-02-12T15:36:20.085Z,75.58
2023-02-12T15:38:53.407Z,75.34
2023-02-12T15:41:29.040Z,75.32
2023-02-12T15:43:57.233Z,75.49
2023-02-12T15:46:25.434Z,75.46
2023-02-12T15:48:55.508Z,75.21
2023-02-12T15:51:30.574Z,75.53
2023-02-12T15:54:06.827Z,75.21
2023-02-12T15:56:36.328Z,75.63
2023-02-12T15:59:05.061Z,75.16
2023-02-12T16:01:36.160Z,75.04
2023-02-12T16:04:06.731Z,75.24
2023-02-12T16:06:36.845Z,75.25
2023-02-12T16:09:09.283Z,75.43
2023-02-12T16:11:38.458Z,75.61
2023-02-12T16:14:10.039Z,75.53
2023-02-12T16:16:45.180Z,75.04
2023-02-12T16:19:20.630Z,75.10
2023-02-12T16:21:52.800Z,75.47
2023-02-12T16:24:29.043Z,75.62
2023-02-12T16:30:26.769Z,75.31
2023-02-12T16:32:55.241Z,74.91
2023-02-12T16:35:29.768Z,75.36
2023-02-12T16:38:40.314Z,75.69
2023-02-12T16:41:33.844Z,75.42
2023-02-12T16:44:25.857Z,75.44
2023-02-12T16:46:56.704Z,75.15
2023-02-12T16:49:27.212Z,75.41
2023-02-12T16:52:15.189Z,75.30
2023-02-12T16:54:43.083Z,75.33
2023-02-12T16:57:12.891Z,75.22
2023-02-12T16:59:44.482Z,75.04
2023-02-12T17:02:14.966Z,75.48
2023-02-12T17:04:43.770Z,75.63
2023-02-12T17:07:19.814Z,75.45
2023-02-12T17:09:47.732Z,75.11
2023-02-12T17:12:17.927Z,75.77
2023-02-12T17:14:46.066Z,75.28
2023-02-12T17:17:14.030Z,75.10
2023-02-12T17:19:41.934Z,75.09
2023-02-12T17:22:19.900Z,75.48
2023-02-12T17:24:51.359Z,75.53
2023-02-12T17:27:21.251Z,75.50
2023-02-12T17:29:49.278Z,75.39
2023-02-12T17:32:17.423Z,75.29
2023-02-12T17:34:49.079Z,75.38
2023-02-12T17:37:18.363Z,75.90
2023-02-12T17:39:46.428Z,75.76
2023-02-12T17:42:14.361Z,75.77
2023-02-12T17:44:43.704Z,75.25
2023-02-12T17:47:11.679Z,75.51
2023-02-12T17:49:40.352Z,75.70
2023-02-12T17:52:08.249Z,75.89
2023-02-12T17:54:36.620Z,75.59
2023-02-12T17:57:04.566Z,75.76
2023-02-12T17:59:32.561Z,75.67
2023-02-12T18:02:02.828Z,75.89
2023-02-12T18:04:33.990Z,75.98
2023-02-12T18:07:02.590Z,75.58
2023-02-12T18:09:30.853Z,75.92
2023-02-12T18:11:58.713Z,75.68
2023-02-12T18:14:26.664Z,75.49
2023-02-12T18:16:54.775Z,76.17
2023-02-12T18:19:26.695Z,76.00
2023-02-12T18:21:54.755Z,75.92
2023-02-12T18:24:22.690Z,75.80
2023-02-12T18:26:51.567Z,75.65
2023-02-12T18:29:19.513Z,76.00
2023-02-12T18:31:47.455Z,75.96
2023-02-12T18:34:15.467Z,75.68
2023-02-12T18:36:44.690Z,76.10
2023-02-12T18:39:12.591Z,75.88
2023-02-12T18:41:41.039Z,76.19
2023-02-12T18:44:08.940Z,76.14
2023-02-12T18:46:36.849Z,76.06
2023-02-12T18:49:05.576Z,76.03
2023-02-12T18:51:37.302Z,76.07
2023-02-12T18:54:08.854Z,76.08
2023-02-12T18:56:40.100Z,76.08
2023-02-12T18:59:09.279Z,76.24
2023-02-12T19:01:37.909Z,75.99
2023-02-12T19:04:07.840Z,75.92
2023-02-12T19:06:40.689Z,76.09
2023-02-12T19:09:10.730Z,76.16
2023-02-12T19:11:40.478Z,76.28
2023-02-12T19:14:08.385Z,76.01
2023-02-12T19:16:36.653Z,76.60
2023-02-12T19:19:04.618Z,76.61
2023-02-12T19:21:34.862Z,76.58
2023-02-12T19:24:04.699Z,76.31
2023-02-12T19:26:35.711Z,76.67
2023-02-12T19:29:04.237Z,76.31
2023-02-12T19:31:34.864Z,76.51
2023-02-12T19:34:05.369Z,76.61
2023-02-12T19:36:35.444Z,76.61
2023-02-12T19:39:04.584Z,76.51
2023-02-12T19:41:41.252Z,76.57
2023-02-12T19:44:12.394Z,76.82
2023-02-12T19:46:41.252Z,76.55
2023-02-12T19:49:13.705Z,76.54
2023-02-12T19:51:41.797Z,76.57
2023-02-12T19:54:11.189Z,76.81
2023-02-12T19:56:40.963Z,76.61
2023-02-12T19:59:10.439Z,76.64
2023-02-12T20:01:39.494Z,76.52
2023-02-12T20:04:07.482Z,76.56
2023-02-12T20:06:37.940Z,76.23
2023-02-12T20:09:08.547Z,76.57
2023-02-12T20:11:38.781Z,77.05
2023-02-12T20:14:09.642Z,76.63
2023-02-12T20:16:39.201Z,76.84
2023-02-12T20:19:09.259Z,77.26
2023-02-12T20:21:37.463Z,76.72
2023-02-12T20:24:06.220Z,76.78
2023-02-12T20:26:34.644Z,76.99
2023-02-12T20:29:05.193Z,76.97
2023-02-12T20:31:38.758Z,76.85
2023-02-12T20:34:08.617Z,76.94
2023-02-12T20:36:38.461Z,77.25
2023-02-12T20:39:07.923Z,76.92
2023-02-12T20:41:39.024Z,76.93
2023-02-12T20:44:08.638Z,77.04
2023-02-12T20:46:39.615Z,76.79
2023-02-12T20:49:08.116Z,77.19
2023-02-12T20:51:36.122Z,76.98
2023-02-12T20:54:04.647Z,77.36
2023-02-12T20:56:35.714Z,77.14
2023-02-12T20:59:05.686Z,76.96
2023-02-12T21:01:36.201Z,77.25
2023-02-12T21:04:07.571Z,77.48
2023-02-12T21:06:35.591Z,77.34
2023-02-12T21:09:03.928Z,77.67
2023-02-12T21:11:31.931Z,77.14
2023-02-12T21:14:20.913Z,77.41
2023-02-12T21:16:48.745Z,76.91
2023-02-12T21:19:18.885Z,77.31
2023-02-12T21:21:47.860Z,77.50
2023-02-12T21:24:17.110Z,76.99
2023-02-12T21:26:45.191Z,77.35
2023-02-12T21:29:13.102Z,77.37
2023-02-12T21:31:42.728Z,77.25
2023-02-12T21:34:13.893Z,77.71
2023-02-12T21:36:46.340Z,77.46
2023-02-12T21:39:16.007Z,77.34
2023-02-12T21:41:44.464Z,77.43
2023-02-12T21:44:14.721Z,77.32
2023-02-12T21:46:43.509Z,77.56
2023-02-12T21:49:12.983Z,77.64
2023-02-12T21:51:44.469Z,77.49
2023-02-12T21:54:15.378Z,77.53
2023-02-12T21:56:45.577Z,77.66
2023-02-12T21:59:14.749Z,77.34
2023-02-12T22:01:44.105Z,77.54
2023-02-12T22:04:12.803Z,77.69
2023-02-12T22:06:44.313Z,77.85
2023-02-12T22:09:14.280Z,77.81
2023-02-12T22:11:43.026Z,77.77
2023-02-12T22:14:14.079Z,77.75
2023-02-12T22:16:42.527Z,77.73
2023-02-12T22:19:10.832Z,77.86
2023-02-12T22:21:41.159Z,77.57
2023-02-12T22:24:13.269Z,77.88
2023-02-12T22:26:41.306Z,77.54
2023-02-12T22:29:10.989Z,77.80
2023-02-12T22:31:40.993Z,77.86
2023-02-12T22:34:12.746Z,77.81
2023-02-12T22:36:41.963Z,77.66
2023-02-12T22:39:13.022Z,78.13
2023-02-12T22:41:42.168Z,78.25
2023-02-12T22:44:11.828Z,77.80
2023-02-12T22:46:39.898Z,77.87
2023-02-12T22:49:07.835Z,77.81
2023-02-12T22:51:39.654Z,77.62
2023-02-12T22:54:08.466Z,77.89
2023-02-12T22:56:37.682Z,78.21
2023-02-12T22:59:07.846Z,77.85
2023-02-12T23:01:37.873Z,78.19
2023-02-12T23:04:06.372Z,78.15
2023-02-12T23:06:34.789Z,77.79
2023-02-12T23:09:04.822Z,77.98
2023-02-12T23:11:35.359Z,78.04
2023-02-12T23:14:04.841Z,77.84
2023-02-12T23:16:33.017Z,78.20
2023-02-12T23:19:02.415Z,77.86
2023-02-12T23:21:31.888Z,78.32
2023-02-12T23:24:00.405Z,78.20
2023-02-12T23:26:28.842Z,78.25
2023-02-12T23:28:57.849Z,78.37
2023-02-12T23:31:27.247Z,78.14
2023-02-12T23:33:55.219Z,78.06
2023-02-12T23:36:23.238Z,78.21
2023-02-12T23:38:52.389Z,78.20
2023-02-12T23:41:20.293Z,78.39
2023-02-12T23:43:48.122Z,78.39
2023-02-12T23:46:16.090Z,78.29
2023-02-12T23:48:45.600Z,78.17
2023-02-12T23:51:13.800Z,78.78
2023-02-12T23:53:41.808Z,78.35
2023-02-12T23:56:12.119Z,78.53
2023-02-12T23:58:40.108Z,78.41
